Time;durP1;ratioP1;P1;durP2;ratioP2;P2;SDS_P1;SDS_P2;PMS_P1;PMS_P2;Temp;Humidity;BMP_temperature;BMP_pressure;BME280_temperature;BME280_humidity;BME280_pressure;Samples;Min_cycle;Max_cycle;Signal;HPM_P1;HPM_P2
2021/05/24 11:51:47;;;;;;;6.72;1.52;;;15.30;75.60;;;;;;6184857;23;20431;-91
2021/05/24 11:54:20;;;;;;;6.55;1.45;;;15.30;75.60;;;;;;6241341;22;20012;-92
2021/05/24 11:56:50;;;;;;;6.18;1.48;;;15.20;75.10;;;;;;6221685;23;20077;-92
2021/05/24 11:59:18;;;;;;;4.63;1.30;;;15.10;74.40;;;;;;6222086;23;20004;-93
2021/05/24 12:01:46;;;;;;;6.05;1.30;;;15.00;74.10;;;;;;6214278;23;20059;-90
2021/05/24 12:04:17;;;;;;;5.22;1.10;;;14.90;73.30;;;;;;6221463;23;20070;-92
2021/05/24 12:07:16;;;;;;;6.07;1.02;;;14.70;73.90;;;;;;6221282;23;20367;-92
2021/05/24 12:09:46;;;;;;;6.15;1.52;;;14.20;76.30;;;;;;6221251;23;20008;-93
2021/05/24 12:12:15;;;;;;;12.45;1.52;;;13.80;77.70;;;;;;6221996;23;20027;-93
2021/05/24 12:15:04;;;;;;;3.55;1.40;;;13.50;78.60;;;;;;6220904;23;20008;-92
2021/05/24 12:17:35;;;;;;;2.33;1.55;;;13.20;79.80;;;;;;6248416;23;20054;-92
2021/05/24 12:20:06;;;;;;;5.63;1.05;;;13.00;81.00;;;;;;6223720;23;20015;-91
2021/05/24 12:22:38;;;;;;;5.70;1.73;;;12.90;81.80;;;;;;6230794;23;20080;-92
2021/05/24 12:25:04;;;;;;;5.88;1.35;;;12.90;82.40;;;;;;6235587;23;20034;-92
2021/05/24 12:27:33;;;;;;;4.35;1.13;;;12.90;82.70;;;;;;6241201;23;20000;-94
2021/05/24 12:30:35;;;;;;;6.78;1.20;;;12.90;82.80;;;;;;6268460;23;20004;-93
2021/05/24 12:33:07;;;;;;;5.85;1.10;;;12.90;83.70;;;;;;6236748;23;20004;-93
2021/05/24 12:35:39;;;;;;;4.97;0.90;;;12.80;84.50;;;;;;6232442;23;20087;-93
2021/05/24 12:38:28;;;;;;;5.10;1.30;;;12.70;85.20;;;;;;6234823;23;20033;-95
2021/05/24 12:41:00;;;;;;;3.97;1.20;;;12.60;86.00;;;;;;6230848;23;19997;-93
2021/05/24 12:45:51;;;;;;;4.30;1.30;;;12.40;88.30;;;;;;6226468;23;20020;-94
2021/05/24 12:48:32;;;;;;;10.52;1.50;;;12.40;89.50;;;;;;6220195;23;20039;-92
2021/05/24 12:50:58;;;;;;;5.55;1.35;;;12.30;90.10;;;;;;6218527;23;20005;-94
2021/05/24 12:53:26;;;;;;;6.88;1.50;;;12.30;90.30;;;;;;6219270;23;20007;-93
2021/05/24 12:55:53;;;;;;;4.32;1.30;;;12.40;90.60;;;;;;6196947;23;20011;-92
2021/05/24 12:58:21;;;;;;;7.93;1.33;;;12.30;90.60;;;;;;6201583;23;20056;-93
2021/05/24 13:00:49;;;;;;;6.65;1.75;;;12.40;90.70;;;;;;6227737;23;20032;-95
2021/05/24 13:03:19;;;;;;;4.00;1.15;;;12.40;90.80;;;;;;6196495;23;20000;-95
2021/05/24 13:06:03;;;;;;;4.72;1.60;;;12.40;91.00;;;;;;6195502;23;20008;-96
2021/05/24 13:08:32;;;;;;;4.70;1.40;;;12.40;91.20;;;;;;6222869;23;20079;-94
2021/05/24 13:11:04;;;;;;;6.65;1.40;;;12.40;91.30;;;;;;6192711;23;20015;-94
2021/05/24 13:13:31;;;;;;;4.35;1.58;;;12.30;91.50;;;;;;6195064;23;20009;-94
2021/05/24 13:16:12;;;;;;;6.55;1.42;;;12.30;91.80;;;;;;6196335;23;20004;-93
2021/05/24 13:19:05;;;;;;;;;;;12.30;92.20;;;;;;6194513;23;20005;-93
2021/05/24 13:30:27;;;;;;;5.40;1.23;;;12.20;92.80;;;;;;6237438;23;20012;-91
2021/05/24 13:32:55;;;;;;;5.03;1.13;;;12.30;92.70;;;;;;6192741;23;20087;-94
2021/05/24 13:35:32;;;;;;;2.88;0.85;;;12.40;92.70;;;;;;6192541;23;20005;-93
2021/05/24 13:37:59;;;;;;;4.65;1.10;;;12.50;92.60;;;;;;6194526;23;20020;-92
2021/05/24 13:40:25;;;;;;;5.63;1.05;;;12.60;92.30;;;;;;6195532;23;20501;-95
2021/05/24 13:42:52;;;;;;;6.82;1.25;;;12.50;91.80;;;;;;6191519;23;20083;-94
2021/05/24 13:45:22;;;;;;;3.00;1.05;;;12.60;91.80;;;;;;6190293;23;20075;-93
2021/05/24 13:47:49;;;;;;;7.38;1.02;;;12.60;91.60;;;;;;6191643;23;20016;-95
2021/05/24 13:50:16;;;;;;;4.07;1.42;;;12.60;91.50;;;;;;6191828;23;20247;-92
2021/05/24 13:52:42;;;;;;;4.32;1.00;;;12.70;91.50;;;;;;6192879;23;20060;-93
2021/05/24 13:55:09;;;;;;;2.33;1.30;;;12.70;91.30;;;;;;6194310;23;20009;-92
2021/05/24 13:57:36;;;;;;;5.15;1.17;;;12.70;90.40;;;;;;6192700;23;20083;-93
2021/05/24 14:00:09;;;;;;;5.63;1.10;;;12.80;90.30;;;;;;6189963;23;20008;-93
2021/05/24 14:02:36;;;;;;;2.50;0.90;;;12.80;90.30;;;;;;6195071;23;20008;-94
2021/05/24 14:05:03;;;;;;;4.10;0.90;;;12.80;90.20;;;;;;6191669;23;20462;-93
2021/05/24 14:07:29;;;;;;;3.50;0.90;;;12.90;90.10;;;;;;6190534;23;20488;-92
2021/05/24 14:10:06;;;;;;;1.63;0.90;;;12.80;89.00;;;;;;6191842;23;20028;-93
2021/05/24 14:12:34;;;;;;;1.75;0.98;;;12.80;88.70;;;;;;6190967;23;20027;-93
2021/05/24 14:14:59;;;;;;;3.90;1.27;;;12.80;89.00;;;;;;6190692;23;20065;-92
2021/05/24 14:17:25;;;;;;;4.60;1.10;;;12.80;88.90;;;;;;6190623;23;20005;-94
2021/05/24 14:20:00;;;;;;;2.88;1.00;;;12.90;88.60;;;;;;6189989;23;20011;-94
2021/05/24 14:22:26;;;;;;;2.60;0.90;;;12.90;88.10;;;;;;6190969;23;20013;-93
2021/05/24 14:24:52;;;;;;;5.10;1.98;;;12.90;87.60;;;;;;6221492;23;20023;-91
2021/05/24 14:27:17;;;;;;;3.20;1.00;;;12.90;87.40;;;;;;6245918;23;20008;-92
2021/05/24 14:29:43;;;;;;;7.22;0.90;;;12.90;87.20;;;;;;6239586;23;20012;-92
2021/05/24 14:32:09;;;;;;;3.17;0.98;;;13.00;87.20;;;;;;6243522;23;20004;-93
2021/05/24 14:34:35;;;;;;;1.88;0.82;;;13.00;86.90;;;;;;6245557;23;20008;-92
2021/05/24 14:37:00;;;;;;;3.08;1.17;;;13.00;86.40;;;;;;6244567;23;20015;-93
2021/05/24 14:39:28;;;;;;;5.13;1.10;;;13.00;86.40;;;;;;6244640;23;20011;-91
2021/05/24 14:41:54;;;;;;;3.13;1.02;;;12.90;86.00;;;;;;6245258;23;20323;-91
2021/05/24 14:44:20;;;;;;;5.75;1.08;;;12.90;86.30;;;;;;6210076;23;20327;-92
2021/05/24 14:46:46;;;;;;;4.28;1.55;;;12.90;86.90;;;;;;6241736;23;20070;-92
2021/05/24 14:49:15;;;;;;;5.53;1.50;;;12.90;88.00;;;;;;6241968;23;20008;-93
2021/05/24 14:51:43;;;;;;;5.40;1.40;;;12.80;89.00;;;;;;6213515;23;20016;-92
2021/05/24 14:54:11;;;;;;;2.33;1.25;;;12.80;89.70;;;;;;6203776;23;20032;-91
2021/05/24 14:56:37;;;;;;;3.92;1.58;;;12.70;90.20;;;;;;6216465;23;20036;-93
2021/05/24 14:59:03;;;;;;;3.67;1.55;;;12.50;90.90;;;;;;6240906;23;20005;-91
2021/05/24 15:01:29;;;;;;;3.55;0.90;;;12.40;91.70;;;;;;6213733;23;20032;-89
2021/05/24 15:03:54;;;;;;;5.00;1.40;;;12.20;92.40;;;;;;6215843;23;20023;-90
2021/05/24 15:06:28;;;;;;;3.42;1.58;;;11.90;93.00;;;;;;6216645;23;20028;-91
2021/05/24 15:08:54;;;;;;;4.50;1.48;;;11.80;93.70;;;;;;6215207;23;20005;-90
2021/05/24 15:11:20;;;;;;;3.00;1.33;;;11.60;94.40;;;;;;6242077;23;20013;-91
2021/05/24 15:13:46;;;;;;;4.45;1.40;;;11.60;95.00;;;;;;6240807;23;20039;-90
2021/05/24 15:16:15;;;;;;;4.15;1.20;;;11.40;95.60;;;;;;6240957;23;20343;-92
2021/05/24 15:18:41;;;;;;;3.95;1.50;;;11.40;96.30;;;;;;6240549;23;20032;-91
2021/05/24 15:21:06;;;;;;;4.82;2.30;;;11.30;96.90;;;;;;6241956;23;20340;-90
2021/05/24 15:23:38;;;;;;;4.30;1.38;;;11.20;97.60;;;;;;6241695;23;20012;-91
2021/05/24 15:26:05;;;;;;;4.55;1.60;;;11.10;98.20;;;;;;6216717;23;20035;-91
2021/05/24 15:28:33;;;;;;;2.97;1.70;;;11.00;98.70;;;;;;6243858;23;20016;-92
2021/05/24 15:31:01;;;;;;;3.95;1.60;;;11.00;99.40;;;;;;6222979;23;20056;-94
2021/05/24 15:33:29;;;;;;;3.58;1.45;;;11.00;99.90;;;;;;6244830;23;20447;-91
2021/05/24 15:35:58;;;;;;;5.18;2.25;;;10.90;99.90;;;;;;6244568;23;20004;-90
2021/05/24 15:38:37;;;;;;;5.40;1.77;;;10.80;99.90;;;;;;6243723;23;20032;-92
2021/05/24 15:41:06;;;;;;;3.65;1.50;;;10.80;99.90;;;;;;6243026;23;20116;-95
2021/05/24 15:43:34;;;;;;;4.13;1.73;;;10.70;99.90;;;;;;6216240;23;20087;-92
2021/05/24 15:46:00;;;;;;;6.35;2.83;;;10.60;99.90;;;;;;6246251;23;20019;-93
2021/05/24 15:48:26;;;;;;;5.07;1.70;;;10.50;99.90;;;;;;6245599;23;20000;-93
2021/05/24 15:50:55;;;;;;;5.78;1.70;;;10.40;99.90;;;;;;6245493;23;20066;-93
2021/05/24 15:53:23;;;;;;;5.18;2.20;;;10.30;99.90;;;;;;6219863;23;20012;-92
2021/05/24 15:55:49;;;;;;;2.95;1.80;;;10.30;99.90;;;;;;6245996;23;20015;-94
2021/05/24 15:58:15;;;;;;;3.15;1.80;;;10.20;99.90;;;;;;6220463;23;20008;-93
2021/05/24 16:00:41;;;;;;;2.30;1.42;;;10.10;99.90;;;;;;6245790;23;20317;-93
2021/05/24 16:03:15;;;;;;;1.88;1.20;;;10.10;99.90;;;;;;6243591;23;20035;-93
2021/05/24 16:05:41;;;;;;;4.53;2.00;;;10.00;99.90;;;;;;6243438;23;20007;-93
2021/05/24 16:08:07;;;;;;;2.63;1.20;;;10.00;99.90;;;;;;6243066;23;20486;-93
2021/05/24 16:10:32;;;;;;;3.42;1.40;;;10.00;99.90;;;;;;6245899;23;20004;-93
2021/05/24 16:13:01;;;;;;;2.40;1.10;;;10.00;99.90;;;;;;6245242;23;20009;-94
2021/05/24 16:15:27;;;;;;;2.47;1.45;;;9.90;99.90;;;;;;6249150;23;20000;-93
2021/05/24 16:17:53;;;;;;;3.25;1.40;;;9.90;99.90;;;;;;6225093;23;20008;-93
2021/05/24 16:20:22;;;;;;;3.42;1.58;;;9.90;99.90;;;;;;6247728;23;20031;-92
2021/05/24 16:22:49;;;;;;;4.57;1.50;;;9.90;99.90;;;;;;6221088;23;20069;-92
2021/05/24 16:27:53;;;;;;;4.78;1.50;;;9.80;99.90;;;;;;6259266;23;20007;-94
2021/05/24 16:30:25;;;;;;;3.50;1.65;;;9.70;99.90;;;;;;6247277;23;20008;-93
2021/05/24 16:32:51;;;;;;;3.08;1.45;;;9.80;99.90;;;;;;6221448;23;20005;-92
2021/05/24 16:35:25;;;;;;;3.05;1.30;;;9.80;99.90;;;;;;6246633;23;20095;-92
2021/05/24 16:37:57;;;;;;;6.22;1.70;;;9.80;99.90;;;;;;6220481;23;20055;-92
2021/05/24 16:40:42;;;;;;;3.50;1.42;;;9.90;99.90;;;;;;6245446;23;20004;-91
2021/05/24 16:43:19;;;;;;;1.52;0.82;;;9.90;99.90;;;;;;6219862;23;20008;-90
2021/05/24 16:45:50;;;;;;;12.48;3.00;;;9.90;99.90;;;;;;6245650;22;20016;-92
2021/05/24 16:48:25;;;;;;;4.40;1.77;;;9.90;99.90;;;;;;6220806;23;20083;-91
2021/05/24 16:50:59;;;;;;;4.65;1.83;;;9.90;99.90;;;;;;6221031;23;20004;-91
2021/05/24 16:53:28;;;;;;;4.55;1.60;;;9.90;99.90;;;;;;6245868;23;20008;-92
2021/05/24 16:55:54;;;;;;;3.83;1.15;;;9.90;99.90;;;;;;6246600;23;20012;-92
2021/05/24 16:58:20;;;;;;;1.98;1.55;;;9.90;99.90;;;;;;6220020;23;20367;-92
2021/05/24 17:00:46;;;;;;;3.28;1.40;;;10.00;99.90;;;;;;6245534;23;20011;-92
2021/05/24 17:03:11;;;;;;;4.38;1.35;;;10.00;99.90;;;;;;6246249;23;20035;-92
2021/05/24 17:05:38;;;;;;;2.75;1.27;;;10.00;99.90;;;;;;6246101;23;20016;-92
2021/05/24 17:08:06;;;;;;;3.03;1.77;;;10.10;99.90;;;;;;6246569;23;20019;-92
2021/05/24 17:10:37;;;;;;;3.55;2.10;;;10.10;99.90;;;;;;6219662;23;20016;-93
2021/05/24 17:13:04;;;;;;;2.47;1.73;;;10.20;99.90;;;;;;6219840;23;20012;-93
2021/05/24 17:15:31;;;;;;;3.08;1.60;;;10.20;99.90;;;;;;6220058;23;20024;-93
2021/05/24 17:18:00;;;;;;;3.25;2.30;;;10.30;99.90;;;;;;6220497;23;20374;-93
2021/05/24 17:20:27;;;;;;;3.42;1.60;;;10.30;99.90;;;;;;6222946;23;20000;-93
2021/05/24 17:22:55;;;;;;;2.50;1.77;;;10.30;99.90;;;;;;6221367;23;20067;-91
2021/05/24 17:25:30;;;;;;;2.10;1.48;;;10.30;99.90;;;;;;6220839;23;20023;-93
2021/05/24 17:28:27;;;;;;;2.92;1.52;;;10.30;99.90;;;;;;6198839;23;20004;-91
2021/05/24 17:31:55;;;;;;;2.97;1.90;;;10.40;99.90;;;;;;6246202;23;20008;-92
2021/05/24 17:34:47;;;;;;;4.68;2.40;;;10.40;99.90;;;;;;6220168;23;20031;-92
2021/05/24 17:37:57;;;;;;;1.70;1.20;;;10.40;99.90;;;;;;6244231;23;20008;-92
2021/05/24 17:41:13;;;;;;;2.40;1.83;;;10.40;99.90;;;;;;6205709;23;20054;-93
2021/05/24 17:44:00;;;;;;;7.75;1.45;;;10.50;99.90;;;;;;6213632;23;20087;-93
2021/05/24 17:46:28;;;;;;;8.73;1.75;;;10.50;99.90;;;;;;6221589;23;20020;-92
2021/05/24 17:48:54;;;;;;;9.27;1.80;;;10.60;99.90;;;;;;6245512;23;20471;-93
2021/05/24 17:51:24;;;;;;;3.45;1.92;;;10.60;99.90;;;;;;6219361;23;20011;-92
2021/05/24 17:53:50;;;;;;;5.93;1.83;;;10.60;99.90;;;;;;6218356;23;20435;-91
2021/05/24 17:56:16;;;;;;;2.95;2.35;;;10.70;99.90;;;;;;6243637;23;20008;-90
2021/05/24 17:58:42;;;;;;;1.95;1.65;;;10.60;99.90;;;;;;6217414;23;20000;-92
2021/05/24 18:01:12;;;;;;;2.25;1.42;;;10.60;99.90;;;;;;6244628;23;20019;-91
2021/05/24 18:03:41;;;;;;;3.45;1.80;;;10.70;99.90;;;;;;6218277;23;20046;-96
2021/05/24 18:06:07;;;;;;;5.88;2.90;;;10.60;99.90;;;;;;6219132;23;20016;-92
2021/05/24 18:08:35;;;;;;;4.50;1.90;;;10.60;99.90;;;;;;6219812;23;20000;-94
2021/05/24 18:11:01;;;;;;;8.30;2.13;;;10.60;99.90;;;;;;6244816;23;20008;-95
2021/05/24 18:13:28;;;;;;;2.72;2.15;;;10.70;99.90;;;;;;6220052;23;20091;-92
2021/05/24 18:15:54;;;;;;;3.58;2.25;;;10.70;99.90;;;;;;6245738;23;20004;-92
2021/05/24 18:20:45;;;;;;;4.90;2.22;;;10.80;99.90;;;;;;6247139;23;20043;-92
2021/05/24 18:23:15;;;;;;;5.15;2.15;;;10.70;99.90;;;;;;6245513;23;20004;-94
2021/05/24 18:25:46;;;;;;;6.15;2.38;;;10.80;99.90;;;;;;6222809;23;20000;-93
2021/05/24 18:28:13;;;;;;;3.90;2.30;;;10.80;99.90;;;;;;6246265;23;20008;-92
2021/05/24 18:30:46;;;;;;;4.40;2.40;;;10.80;99.90;;;;;;6224319;23;20008;-94
2021/05/24 18:33:11;;;;;;;4.38;2.58;;;10.80;99.90;;;;;;6224866;23;20135;-93
2021/05/24 18:35:40;;;;;;;5.65;2.60;;;10.90;99.90;;;;;;6249488;23;20012;-93
2021/05/24 18:38:14;;;;;;;3.53;2.20;;;10.90;99.90;;;;;;6248828;23;20006;-92
2021/05/24 18:40:41;;;;;;;7.55;2.30;;;10.90;99.90;;;;;;6247548;23;20001;-93
2021/05/24 18:43:20;;;;;;;7.53;2.60;;;10.90;99.90;;;;;;6220954;23;20008;-92
2021/05/24 18:45:49;;;;;;;5.68;1.85;;;10.90;99.90;;;;;;6220340;23;20016;-92
2021/05/24 18:48:17;;;;;;;8.48;1.75;;;11.00;99.90;;;;;;6244624;23;20087;-91
2021/05/24 18:50:43;;;;;;;8.50;1.33;;;10.90;99.90;;;;;;6220005;23;20130;-91
2021/05/24 18:53:19;;;;;;;7.60;1.33;;;10.90;99.90;;;;;;6219693;23;20023;-91
2021/05/24 18:55:47;;;;;;;4.03;1.00;;;10.90;99.90;;;;;;6218606;23;20007;-90
2021/05/24 18:58:16;;;;;;;5.53;1.30;;;10.80;99.90;;;;;;6219123;23;20011;-92
2021/05/24 19:01:22;;;;;;;7.20;1.20;;;10.80;99.90;;;;;;6219186;23;19992;-93
2021/05/24 19:03:58;;;;;;;3.30;1.02;;;10.70;99.90;;;;;;6219211;23;20022;-92
2021/05/24 19:06:27;;;;;;;9.27;1.15;;;10.60;99.90;;;;;;6219275;23;20054;-92
2021/05/24 19:08:56;;;;;;;5.13;1.10;;;10.60;99.90;;;;;;6244484;23;20000;-93
2021/05/24 19:11:31;;;;;;;8.15;1.48;;;10.60;99.90;;;;;;6243864;23;20008;-92
2021/05/24 19:14:04;;;;;;;1.50;0.90;;;10.60;99.90;;;;;;6245680;23;20035;-92
2021/05/24 19:16:31;;;;;;;5.15;1.60;;;10.60;99.90;;;;;;6245164;23;20365;-93
2021/05/24 19:19:00;;;;;;;5.28;1.30;;;10.50;99.90;;;;;;6220826;23;20057;-91
2021/05/24 19:21:29;;;;;;;7.38;1.15;;;10.50;99.90;;;;;;6247365;23;20011;-92
2021/05/24 19:23:54;;;;;;;2.95;0.77;;;10.50;99.90;;;;;;6219625;23;20008;-91
2021/05/24 19:26:33;;;;;;;2.40;1.58;;;10.50;99.90;;;;;;6246595;23;20015;-92
2021/05/24 19:31:51;;;;;;;8.73;1.30;;;10.40;99.90;;;;;;6240373;23;20308;-92
2021/05/24 19:34:19;;;;;;;7.35;1.80;;;10.40;99.90;;;;;;6246504;23;20004;-91
2021/05/24 19:36:45;;;;;;;6.95;2.58;;;10.50;99.90;;;;;;6247068;23;20386;-91
2021/05/24 19:39:11;;;;;;;5.85;1.30;;;10.50;99.90;;;;;;6246853;23;20007;-93
2021/05/24 19:41:37;;;;;;;3.47;1.35;;;10.50;99.90;;;;;;6246529;23;20008;-92
2021/05/24 19:44:07;;;;;;;5.72;1.63;;;10.50;99.90;;;;;;6221936;23;20016;-91
2021/05/24 19:46:40;;;;;;;6.60;1.33;;;10.50;99.90;;;;;;6223509;23;20684;-92
2021/05/24 20:25:22;;;;;;;3.92;1.70;;;9.90;99.90;;;;;;6215403;23;20530;-92
2021/05/24 20:27:48;;;;;;;4.53;1.60;;;9.80;99.90;;;;;;6214198;23;20013;-91
2021/05/24 20:30:14;;;;;;;4.57;1.65;;;9.80;99.90;;;;;;6212829;23;20044;-91
2021/05/24 20:32:43;;;;;;;4.78;1.50;;;9.80;99.90;;;;;;6213428;23;20001;-91
2021/05/24 20:35:09;;;;;;;6.03;1.63;;;9.80;99.90;;;;;;6213515;23;20019;-91
2021/05/24 20:37:34;;;;;;;4.78;1.70;;;9.70;99.90;;;;;;6214567;23;20060;-92
2021/05/24 20:40:00;;;;;;;8.88;1.67;;;9.60;99.90;;;;;;6214563;23;20008;-92
2021/05/24 20:42:26;;;;;;;4.55;1.40;;;9.50;99.90;;;;;;6244640;23;20008;-90
2021/05/24 20:44:52;;;;;;;4.00;2.00;;;9.40;99.90;;;;;;6244535;23;20069;-91
2021/05/24 20:47:23;;;;;;;7.53;1.92;;;9.30;99.90;;;;;;6245387;23;20000;-91
2021/05/24 20:49:51;;;;;;;8.52;1.98;;;9.10;99.90;;;;;;6244759;23;20094;-90
2021/05/24 20:52:22;;;;;;;11.43;1.85;;;9.00;99.90;;;;;;6236400;23;20014;-90
2021/05/24 20:54:48;;;;;;;5.63;2.03;;;8.80;99.90;;;;;;6189067;23;20028;-92
2021/05/24 20:57:13;;;;;;;9.68;1.95;;;8.70;99.90;;;;;;6189098;23;20252;-91
2021/05/24 20:59:39;;;;;;;6.05;2.10;;;8.60;99.90;;;;;;6188726;23;20016;-92
2021/05/24 21:02:13;;;;;;;7.55;2.15;;;8.50;99.90;;;;;;6215742;23;20317;-91
2021/05/24 21:04:39;;;;;;;7.75;2.17;;;8.40;99.90;;;;;;6189742;23;20019;-92
2021/05/24 21:07:09;;;;;;;3.67;1.80;;;8.40;99.90;;;;;;6215836;23;20491;-90
2021/05/24 21:09:35;;;;;;;5.82;2.20;;;8.30;99.90;;;;;;6189157;23;20012;-91
2021/05/24 21:12:03;;;;;;;7.15;1.92;;;8.30;99.90;;;;;;6189556;23;20031;-91
2021/05/24 21:14:29;;;;;;;7.22;3.63;;;8.20;99.90;;;;;;6189793;23;20228;-91
2021/05/24 21:16:55;;;;;;;10.20;2.50;;;8.20;99.90;;;;;;6189416;23;20395;-91
2021/05/24 21:19:24;;;;;;;9.13;2.30;;;8.20;99.90;;;;;;6189050;23;20428;-90
2021/05/24 21:21:53;;;;;;;10.00;2.97;;;8.10;99.90;;;;;;6189545;23;20015;-90
2021/05/24 21:24:24;;;;;;;4.97;1.73;;;8.10;99.90;;;;;;6187749;23;20057;-90
2021/05/24 21:26:52;;;;;;;4.47;2.03;;;8.10;99.90;;;;;;6190192;23;20014;-91
2021/05/24 21:29:18;;;;;;;5.18;2.45;;;8.10;99.90;;;;;;6190446;23;20008;-91
2021/05/24 21:31:45;;;;;;;4.35;1.80;;;8.10;99.90;;;;;;6189789;23;20498;-91
2021/05/24 21:37:01;;;;;;;5.82;2.00;;;8.10;99.90;;;;;;6216818;23;20015;-91
2021/05/24 21:39:27;;;;;;;8.60;2.40;;;8.10;99.90;;;;;;6189881;23;20020;-91
2021/05/24 21:41:53;;;;;;;5.78;2.40;;;8.00;99.90;;;;;;6189516;23;20012;-92
2021/05/24 21:44:19;;;;;;;2.88;2.10;;;8.00;99.90;;;;;;6192330;23;20102;-91
2021/05/24 21:46:45;;;;;;;7.38;2.20;;;7.90;99.90;;;;;;6191704;23;20004;-91
2021/05/24 21:49:10;;;;;;;3.97;2.03;;;7.90;99.90;;;;;;6189797;23;20008;-90
2021/05/24 21:51:36;;;;;;;5.60;2.33;;;7.80;99.90;;;;;;6190755;23;20096;-91
2021/05/24 21:54:02;;;;;;;8.25;2.80;;;7.80;99.90;;;;;;6191189;23;20424;-91
2021/05/24 21:56:28;;;;;;;11.20;3.20;;;7.70;99.90;;;;;;6190146;23;20004;-91
2021/05/24 21:58:54;;;;;;;8.20;3.35;;;7.60;99.90;;;;;;6191441;23;20004;-90
2021/05/24 22:01:20;;;;;;;2.97;1.85;;;7.50;99.90;;;;;;6191747;23;20016;-91
2021/05/24 22:03:53;;;;;;;8.88;2.92;;;7.40;99.90;;;;;;6190518;23;20017;-89
2021/05/24 22:06:19;;;;;;;10.55;2.50;;;7.40;99.90;;;;;;6218422;23;20000;-90
2021/05/24 22:08:45;;;;;;;9.13;3.03;;;7.30;99.90;;;;;;6192107;23;20055;-92
2021/05/24 22:11:11;;;;;;;6.57;2.33;;;7.20;99.90;;;;;;6192320;23;20028;-90
2021/05/24 22:13:38;;;;;;;6.22;2.42;;;7.20;99.90;;;;;;6218451;23;20091;-90
2021/05/24 22:16:05;;;;;;;4.65;2.10;;;7.10;99.90;;;;;;6191535;23;20072;-91
2021/05/24 22:18:33;;;;;;;5.03;2.22;;;7.10;99.90;;;;;;6191692;23;20067;-91
2021/05/24 22:21:00;;;;;;;5.65;2.00;;;7.00;99.90;;;;;;6191473;23;19997;-91
2021/05/24 22:23:26;;;;;;;6.90;1.90;;;7.00;99.90;;;;;;6191267;23;20092;-91
2021/05/24 22:25:53;;;;;;;5.18;2.10;;;7.00;99.90;;;;;;6190970;23;20040;-91
2021/05/24 22:28:19;;;;;;;6.18;1.90;;;7.00;99.90;;;;;;6191011;23;20060;-89
2021/05/24 22:30:45;;;;;;;6.13;1.85;;;6.90;99.90;;;;;;6190522;23;20311;-90
2021/05/24 22:33:12;;;;;;;6.90;2.10;;;6.90;99.90;;;;;;6190259;23;20000;-91
2021/05/24 22:35:38;;;;;;;9.77;1.60;;;6.90;99.90;;;;;;6189900;23;20745;-90
2021/05/24 22:38:04;;;;;;;3.65;2.10;;;6.90;99.90;;;;;;6189917;23;20011;-91
2021/05/24 22:40:30;;;;;;;6.10;1.90;;;7.00;99.90;;;;;;6190056;23;20087;-90
2021/05/24 22:42:56;;;;;;;5.05;1.63;;;7.00;99.90;;;;;;6190154;23;20423;-90
2021/05/24 22:45:25;;;;;;;4.82;1.73;;;7.00;99.90;;;;;;6190739;23;20159;-90
2021/05/24 22:47:54;;;;;;;2.72;1.40;;;7.00;99.90;;;;;;6190122;23;20000;-91
2021/05/24 22:50:23;;;;;;;4.25;1.42;;;7.10;99.90;;;;;;6188892;23;20004;-92
2021/05/24 22:52:54;;;;;;;6.00;1.80;;;7.10;99.90;;;;;;6187165;23;20431;-92
2021/05/24 22:55:30;;;;;;;5.32;2.28;;;7.10;99.90;;;;;;6190251;23;20009;-90
2021/05/24 22:57:55;;;;;;;7.30;1.83;;;7.20;99.90;;;;;;6189675;23;20502;-91
2021/05/24 23:00:24;;;;;;;4.63;1.83;;;7.20;99.90;;;;;;6191071;23;20215;-91
2021/05/24 23:02:51;;;;;;;4.88;1.50;;;7.20;99.90;;;;;;6191166;23;20062;-91
2021/05/24 23:05:20;;;;;;;5.28;1.50;;;7.20;99.90;;;;;;6191025;23;20427;-90
2021/05/24 23:07:46;;;;;;;4.95;1.77;;;7.20;99.90;;;;;;6191288;23;20004;-91
2021/05/24 23:10:13;;;;;;;4.40;1.80;;;7.10;99.90;;;;;;6191416;23;20000;-90
2021/05/24 23:12:45;;;;;;;5.38;2.03;;;7.10;99.90;;;;;;6191181;23;20462;-90
2021/05/24 23:15:12;;;;;;;10.27;1.95;;;7.10;99.90;;;;;;6191524;23;20015;-89
2021/05/24 23:17:40;;;;;;;3.78;1.83;;;7.10;99.90;;;;;;6191777;23;20439;-91
2021/05/24 23:20:06;;;;;;;3.17;1.52;;;7.00;99.90;;;;;;6191746;23;20004;-90
2021/05/24 23:22:35;;;;;;;4.28;1.40;;;7.00;99.90;;;;;;6191364;23;20013;-90
2021/05/24 23:25:01;;;;;;;4.80;1.83;;;7.00;99.90;;;;;;6217546;23;20013;-90
2021/05/24 23:27:28;;;;;;;10.88;2.13;;;7.10;99.90;;;;;;6191683;23;20005;-90
2021/05/24 23:29:53;;;;;;;7.28;1.92;;;7.10;99.90;;;;;;6191419;23;20004;-90
2021/05/24 23:32:19;;;;;;;6.30;1.80;;;7.10;99.90;;;;;;6191830;23;20016;-91
2021/05/24 23:34:45;;;;;;;6.88;2.33;;;7.10;99.90;;;;;;6191340;23;20446;-90
2021/05/24 23:37:10;;;;;;;7.55;2.70;;;7.20;99.90;;;;;;6191260;23;20032;-90
2021/05/24 23:39:36;;;;;;;9.30;2.72;;;7.30;99.90;;;;;;6191543;23;20004;-91
2021/05/24 23:42:02;;;;;;;7.00;2.55;;;7.30;99.90;;;;;;6191231;23;20017;-92
2021/05/24 23:44:28;;;;;;;4.80;3.03;;;7.30;99.90;;;;;;6191329;23;20012;-90
2021/05/24 23:46:54;;;;;;;5.13;2.25;;;7.40;99.90;;;;;;6191365;23;20344;-90
2021/05/24 23:49:20;;;;;;;5.32;2.40;;;7.40;99.90;;;;;;6216201;23;20015;-91
2021/05/24 23:51:45;;;;;;;4.82;1.90;;;7.40;99.90;;;;;;6194477;23;20008;-91
2021/05/24 23:54:11;;;;;;;10.00;2.70;;;7.50;99.90;;;;;;6193183;23;20008;-91
2021/05/24 23:56:37;;;;;;;8.55;2.85;;;7.50;99.90;;;;;;6192466;23;20043;-92
2021/05/24 23:59:06;;;;;;;6.85;2.50;;;7.50;99.90;;;;;;6191704;23;20428;-91
